createdAt,value
2018-02-05T00:00:02.984Z,42.60
2018-02-05T00:01:02.914Z,38.30
2018-02-05T00:02:02.849Z,42.50
2018-02-05T00:03:02.775Z,40.20
2018-02-05T00:04:02.705Z,44.40
2018-02-05T00:05:02.639Z,42.70
2018-02-05T00:06:02.568Z,45.20
2018-02-05T00:07:02.497Z,43.30
2018-02-05T00:08:02.428Z,41.20
2018-02-05T00:09:02.359Z,44.00
2018-02-05T00:10:02.289Z,42.50
2018-02-05T00:11:02.224Z,41.90
2018-02-05T00:12:02.156Z,42.90
2018-02-05T00:13:02.083Z,42.70
2018-02-05T00:14:02.011Z,42.20
2018-02-05T00:15:01.941Z,48.20
2018-02-05T00:16:01.872Z,44.00
2018-02-05T00:17:01.802Z,43.30
2018-02-05T00:18:01.734Z,42.70
2018-02-05T00:19:01.664Z,45.40
2018-02-05T00:20:01.594Z,44.80
2018-02-05T00:21:01.525Z,43.40
2018-02-05T00:22:01.456Z,44.80
2018-02-05T00:23:01.385Z,44.10
2018-02-05T00:24:01.316Z,46.80
2018-02-05T00:25:01.247Z,43.50
2018-02-05T00:26:01.178Z,46.70
2018-02-05T00:27:01.111Z,43.50
2018-02-05T00:28:01.039Z,47.50
2018-02-05T00:29:00.969Z,49.40
2018-02-05T00:30:00.900Z,49.60
2018-02-05T00:31:00.830Z,48.10
2018-02-05T00:32:00.761Z,48.00
2018-02-05T00:33:00.692Z,46.20
2018-02-05T00:34:00.622Z,46.40
2018-02-05T00:35:00.551Z,44.20
2018-02-05T00:36:00.483Z,43.60
2018-02-05T00:37:00.413Z,46.00
2018-02-05T00:38:00.344Z,47.20
2018-02-05T00:39:00.274Z,49.40
2018-02-05T00:40:00.204Z,47.00
2018-02-05T00:41:00.136Z,49.20
2018-02-05T00:42:00.068Z,46.40
2018-02-05T00:42:59.996Z,43.60
2018-02-05T00:43:59.928Z,47.90
2018-02-05T00:44:59.859Z,46.80
2018-02-05T00:45:59.790Z,44.50
2018-02-05T00:46:59.719Z,46.90
2018-02-05T00:47:59.651Z,48.80
2018-02-05T00:48:59.582Z,44.70
2018-02-05T00:49:59.512Z,46.10
2018-02-05T00:50:59.442Z,46.90
2018-02-05T00:51:59.376Z,47.50
2018-02-05T00:52:59.364Z,47.00
2018-02-05T00:53:59.236Z,49.60
2018-02-05T00:54:59.165Z,46.10
2018-02-05T00:55:59.095Z,45.80
2018-02-05T00:56:59.026Z,43.90
2018-02-05T00:57:58.958Z,45.50
2018-02-05T00:58:58.887Z,46.70
2018-02-05T00:59:58.818Z,44.70
2018-02-05T01:00:58.750Z,47.70
2018-02-05T01:01:58.681Z,46.20
2018-02-05T01:02:58.610Z,46.90
2018-02-05T01:03:58.542Z,45.30
2018-02-05T01:04:58.473Z,47.10
2018-02-05T01:05:58.405Z,43.70
2018-02-05T01:06:58.333Z,47.40
2018-02-05T01:07:58.264Z,46.40
2018-02-05T01:08:58.247Z,43.60
2018-02-05T01:09:58.128Z,46.20
2018-02-05T01:10:58.059Z,48.20
2018-02-05T01:11:57.993Z,42.50
2018-02-05T01:12:57.918Z,45.90
2018-02-05T01:13:57.849Z,47.80
2018-02-05T01:14:57.779Z,46.10
2018-02-05T01:15:57.710Z,48.10
2018-02-05T01:16:57.641Z,43.10
2018-02-05T01:17:57.572Z,45.90
2018-02-05T01:18:57.502Z,45.60
2018-02-05T01:19:57.433Z,45.20
2018-02-05T01:20:57.364Z,43.20
2018-02-05T01:21:57.297Z,47.10
2018-02-05T01:22:57.226Z,48.00
2018-02-05T01:23:57.156Z,44.80
2018-02-05T01:24:57.092Z,44.80
2018-02-05T01:25:57.018Z,45.00
2018-02-05T01:26:56.948Z,47.60
2018-02-05T01:27:56.879Z,46.20
2018-02-05T01:28:56.810Z,44.60
2018-02-05T01:29:56.742Z,46.20
2018-02-05T01:30:56.670Z,43.30
2018-02-05T01:31:56.605Z,44.10
2018-02-05T01:32:56.534Z,41.80
2018-02-05T01:33:56.465Z,42.10
2018-02-05T01:34:56.394Z,46.10
2018-02-05T01:35:56.326Z,46.50
2018-02-05T01:36:56.257Z,44.70
2018-02-05T01:37:56.188Z,41.40
2018-02-05T01:38:56.119Z,46.90
2018-02-05T01:39:56.048Z,45.40
2018-02-05T01:40:55.981Z,46.40
2018-02-05T01:41:55.914Z,46.60
2018-02-05T01:42:55.841Z,43.80
2018-02-05T01:43:55.772Z,47.50
2018-02-05T01:44:55.703Z,47.40
2018-02-05T01:45:55.634Z,48.20
2018-02-05T01:46:55.562Z,44.70
2018-02-05T01:47:55.495Z,49.20
2018-02-05T01:48:55.425Z,49.70
2018-02-05T01:49:55.357Z,50.00
2018-02-05T01:50:55.287Z,48.20
2018-02-05T01:51:55.219Z,43.90
2018-02-05T01:52:55.149Z,44.00
2018-02-05T01:53:55.080Z,49.10
2018-02-05T01:54:55.010Z,51.30
2018-02-05T01:55:54.941Z,51.20
2018-02-05T01:56:54.972Z,48.70
2018-02-05T01:57:54.803Z,46.80
2018-02-05T01:58:54.733Z,45.30
2018-02-05T01:59:54.668Z,45.80
2018-02-05T02:00:54.595Z,44.50
2018-02-05T02:01:54.525Z,45.20
2018-02-05T02:02:54.456Z,45.50
2018-02-05T02:03:54.387Z,43.10
2018-02-05T02:04:54.318Z,46.90
2018-02-05T02:05:54.250Z,45.80
2018-02-05T02:06:54.180Z,46.50
2018-02-05T02:07:54.114Z,43.90
2018-02-05T02:08:54.042Z,44.50
2018-02-05T02:09:53.973Z,45.60
2018-02-05T02:10:53.903Z,44.40
2018-02-05T02:11:53.836Z,49.90
2018-02-05T02:12:53.766Z,46.30
2018-02-05T02:13:53.696Z,49.00
2018-02-05T02:14:53.627Z,44.00
2018-02-05T02:15:53.558Z,45.20
2018-02-05T02:16:53.491Z,44.00
2018-02-05T02:17:53.420Z,42.20
2018-02-05T02:18:53.351Z,43.60
2018-02-05T02:19:53.283Z,46.40
2018-02-05T02:20:53.213Z,45.10
2018-02-05T02:21:53.145Z,48.30
2018-02-05T02:22:53.074Z,44.10
2018-02-05T02:23:53.005Z,45.90
2018-02-05T02:24:52.936Z,46.90
2018-02-05T02:25:52.868Z,44.40
2018-02-05T02:26:52.799Z,46.20
2018-02-05T02:27:52.730Z,45.80
2018-02-05T02:28:52.661Z,43.10
2018-02-05T02:29:52.592Z,43.40
2018-02-05T02:30:52.525Z,43.40
2018-02-05T02:31:52.455Z,43.60
2018-02-05T02:32:52.389Z,45.30
2018-02-05T02:33:52.316Z,44.00
2018-02-05T02:34:52.247Z,43.90
2018-02-05T02:35:52.181Z,43.90
2018-02-05T02:36:52.111Z,47.30
2018-02-05T02:37:52.042Z,43.60
2018-02-05T02:38:51.973Z,45.60
2018-02-05T02:39:51.903Z,45.00
2018-02-05T02:40:51.834Z,45.20
2018-02-05T02:41:51.765Z,42.30
2018-02-05T02:42:51.695Z,45.30
2018-02-05T02:43:51.626Z,46.50
2018-02-05T02:44:51.558Z,43.30
2018-02-05T02:45:51.489Z,47.30
2018-02-05T02:46:51.421Z,45.70
2018-02-05T02:47:51.350Z,43.50
2018-02-05T02:48:51.282Z,42.20
2018-02-05T02:49:51.213Z,44.90
2018-02-05T02:50:51.143Z,38.20
2018-02-05T02:51:51.074Z,41.30
2018-02-05T02:52:51.007Z,42.30
2018-02-05T02:53:50.937Z,41.90
2018-02-05T02:54:50.867Z,35.60
2018-02-05T02:55:50.799Z,37.70
2018-02-05T02:56:50.732Z,38.70
2018-02-05T02:57:50.660Z,43.00
2018-02-05T02:58:50.593Z,40.70
2018-02-05T02:59:50.522Z,41.40
2018-02-05T03:00:50.453Z,37.80
2018-02-05T03:01:50.386Z,36.90
2018-02-05T03:02:50.314Z,36.10
2018-02-05T03:03:50.244Z,37.10
2018-02-05T03:04:50.176Z,39.30
2018-02-05T03:05:50.107Z,39.70
2018-02-05T03:06:50.037Z,39.20
2018-02-05T03:07:49.968Z,36.50
2018-02-05T03:08:49.898Z,35.50
2018-02-05T03:09:49.828Z,35.90
2018-02-05T03:10:49.763Z,32.50
2018-02-05T03:11:49.691Z,39.10
2018-02-05T03:12:49.620Z,39.80
2018-02-05T03:13:49.551Z,45.90
2018-02-05T03:14:49.481Z,50.90
2018-02-05T03:15:49.411Z,41.60
2018-02-05T03:16:49.343Z,51.70
2018-02-05T03:17:49.273Z,48.90
2018-02-05T03:18:49.205Z,49.10
2018-02-05T03:19:49.139Z,49.00
2018-02-05T03:20:49.065Z,53.80
2018-02-05T03:21:48.995Z,49.60
2018-02-05T03:22:48.925Z,50.30
2018-02-05T03:23:48.855Z,49.00
2018-02-05T03:24:48.787Z,48.90
2018-02-05T03:25:48.767Z,48.00
2018-02-05T03:26:48.647Z,52.40
2018-02-05T03:27:48.577Z,48.50
2018-02-05T03:28:48.508Z,44.30
2018-02-05T03:29:48.439Z,50.20
2018-02-05T03:30:48.370Z,49.30
2018-02-05T03:31:48.299Z,49.00
2018-02-05T03:32:48.229Z,40.40
2018-02-05T03:33:48.160Z,47.50
2018-02-05T03:34:48.090Z,46.50
2018-02-05T03:35:48.022Z,50.20
2018-02-05T03:36:47.951Z,53.60
2018-02-05T03:37:47.881Z,46.40
2018-02-05T03:38:47.811Z,46.10
2018-02-05T03:39:47.743Z,44.50
2018-02-05T03:40:47.673Z,45.30
2018-02-05T03:41:47.607Z,47.90
2018-02-05T03:42:47.538Z,48.80
2018-02-05T03:43:47.463Z,46.80
2018-02-05T03:44:47.394Z,46.70
2018-02-05T03:45:47.325Z,48.00
2018-02-05T03:46:47.254Z,47.30
2018-02-05T03:47:47.185Z,47.00
2018-02-05T03:48:47.116Z,50.00
2018-02-05T03:49:47.048Z,41.00
2018-02-05T03:50:46.975Z,43.30
2018-02-05T03:51:46.906Z,52.40
2018-02-05T03:52:46.836Z,37.30
2018-02-05T03:53:46.766Z,42.10
2018-02-05T03:54:46.699Z,48.80
2018-02-05T03:55:46.627Z,35.70
2018-02-05T03:56:46.559Z,35.70
2018-02-05T03:57:46.488Z,40.50
2018-02-05T03:58:46.418Z,41.70
2018-02-05T03:59:46.348Z,47.10
2018-02-05T04:00:46.279Z,44.50
2018-02-05T04:01:46.209Z,43.50
2018-02-05T04:02:46.138Z,45.50
2018-02-05T04:03:46.068Z,47.20
2018-02-05T04:04:45.999Z,43.20
2018-02-05T04:05:45.930Z,42.00
2018-02-05T04:06:45.858Z,34.10
2018-02-05T04:07:45.791Z,34.90
2018-02-05T04:08:45.719Z,39.00
2018-02-05T04:09:45.650Z,39.80
2018-02-05T04:10:45.579Z,45.00
2018-02-05T04:11:45.509Z,42.20
2018-02-05T04:12:45.442Z,45.40
2018-02-05T04:13:45.370Z,46.30
2018-02-05T04:14:45.299Z,54.30
2018-02-05T04:15:45.230Z,44.80
2018-02-05T04:16:45.160Z,45.70
2018-02-05T04:17:45.091Z,46.00
2018-02-05T04:18:45.019Z,41.60
2018-02-05T04:19:44.949Z,39.10
2018-02-05T04:20:44.880Z,37.40
2018-02-05T04:21:44.811Z,40.20
2018-02-05T04:22:44.738Z,44.90
2018-02-05T04:23:44.671Z,41.70
2018-02-05T04:24:44.601Z,40.10
2018-02-05T04:25:44.530Z,38.30
2018-02-05T04:26:44.460Z,46.20
2018-02-05T04:27:44.391Z,45.90
2018-02-05T04:28:44.320Z,39.90
2018-02-05T04:29:44.251Z,46.70
2018-02-05T04:30:44.221Z,43.70
2018-02-05T04:31:44.110Z,45.10
2018-02-05T04:32:44.041Z,36.20
2018-02-05T04:33:43.971Z,40.30
2018-02-05T04:34:43.900Z,38.40
2018-02-05T04:35:43.836Z,36.60
2018-02-05T04:36:44.083Z,41.80
2018-02-05T04:37:43.690Z,40.40
2018-02-05T04:38:43.621Z,39.30
2018-02-05T04:39:43.550Z,42.40
2018-02-05T04:40:43.482Z,39.60
2018-02-05T04:41:43.410Z,36.80
2018-02-05T04:42:43.340Z,35.70
2018-02-05T04:43:43.271Z,33.70
2018-02-05T04:44:43.200Z,38.50
2018-02-05T04:45:43.131Z,47.30
2018-02-05T04:46:43.060Z,59.80
2018-02-05T04:47:42.990Z,58.50
2018-02-05T04:48:42.920Z,55.60
2018-02-05T04:49:42.849Z,56.90
2018-02-05T04:50:42.779Z,59.10
2018-02-05T04:51:42.709Z,50.20
2018-02-05T04:52:42.639Z,51.20
2018-02-05T04:53:42.569Z,54.50
2018-02-05T04:54:42.498Z,51.30
2018-02-05T04:55:42.436Z,51.30
2018-02-05T04:56:42.358Z,47.50
2018-02-05T04:57:42.289Z,49.90
2018-02-05T04:58:42.218Z,48.80
2018-02-05T04:59:42.149Z,48.30
2018-02-05T05:00:42.078Z,45.90
2018-02-05T05:01:42.010Z,52.40
2018-02-05T05:02:41.938Z,41.90
2018-02-05T05:03:41.872Z,46.80
2018-02-05T05:04:41.803Z,37.60
2018-02-05T05:05:41.728Z,39.40
2018-02-05T05:06:41.662Z,46.00
2018-02-05T05:07:41.586Z,43.50
2018-02-05T05:08:41.517Z,36.30
2018-02-05T05:09:41.448Z,33.60
2018-02-05T05:10:41.445Z,34.70
2018-02-05T05:11:41.320Z,42.20
2018-02-05T05:12:41.239Z,42.30
2018-02-05T05:13:41.166Z,47.20
2018-02-05T05:14:41.097Z,47.00
2018-02-05T05:15:41.025Z,38.90
2018-02-05T05:16:40.955Z,42.20
2018-02-05T05:17:40.886Z,41.80
2018-02-05T05:18:40.814Z,46.20
2018-02-05T05:19:40.744Z,44.00
2018-02-05T05:20:40.674Z,43.10
2018-02-05T05:21:40.604Z,45.60
2018-02-05T05:22:40.533Z,35.40
2018-02-05T05:23:40.467Z,29.00
2018-02-05T05:24:40.394Z,34.10
2018-02-05T05:25:40.324Z,37.70
2018-02-05T05:26:40.252Z,38.80
2018-02-05T05:27:40.183Z,38.90
2018-02-05T05:28:40.113Z,31.60
2018-02-05T05:29:40.043Z,39.80
2018-02-05T05:30:39.972Z,40.90
2018-02-05T05:31:39.901Z,37.30
2018-02-05T05:32:39.833Z,39.70
2018-02-05T05:33:39.761Z,45.20
2018-02-05T05:34:39.691Z,41.30
2018-02-05T05:35:39.619Z,46.90
2018-02-05T05:36:39.551Z,38.20
2018-02-05T05:37:39.481Z,41.10
2018-02-05T05:38:39.410Z,39.90
2018-02-05T05:39:39.341Z,43.60
2018-02-05T05:40:39.271Z,42.30
2018-02-05T05:41:39.250Z,44.00
2018-02-05T05:42:39.128Z,39.10
2018-02-05T05:43:39.059Z,39.20
2018-02-05T05:44:38.991Z,40.10
2018-02-05T05:45:38.920Z,40.40
2018-02-05T05:46:38.849Z,38.70
2018-02-05T05:47:38.778Z,42.30
2018-02-05T05:48:38.709Z,49.00
2018-02-05T05:49:38.638Z,45.20
2018-02-05T05:50:38.574Z,44.90
2018-02-05T05:51:38.499Z,53.00
2018-02-05T05:52:38.428Z,55.30
2018-02-05T05:53:38.359Z,44.40
2018-02-05T05:54:38.287Z,46.10
2018-02-05T05:55:38.218Z,48.40
2018-02-05T05:56:38.206Z,45.90
2018-02-05T05:57:38.078Z,46.70
2018-02-05T05:58:38.009Z,43.90
2018-02-05T05:59:37.938Z,43.60
2018-02-05T06:00:37.867Z,42.60
2018-02-05T06:01:37.798Z,40.40
2018-02-05T06:02:37.727Z,42.80
2018-02-05T06:03:37.658Z,48.60
2018-02-05T06:04:37.588Z,44.30
2018-02-05T06:05:37.519Z,51.80
2018-02-05T06:06:37.447Z,51.40
2018-02-05T06:07:37.416Z,44.60
2018-02-05T06:08:37.311Z,46.00
2018-02-05T06:09:37.238Z,55.60
2018-02-05T06:10:37.167Z,54.90
2018-02-05T06:11:37.098Z,48.60
2018-02-05T06:12:37.029Z,49.30
2018-02-05T06:13:36.959Z,47.90
2018-02-05T06:14:36.887Z,44.60
2018-02-05T06:15:36.817Z,42.10
2018-02-05T06:16:36.747Z,46.20
2018-02-05T06:17:36.677Z,45.30
2018-02-05T06:18:36.608Z,47.60
2018-02-05T06:19:36.537Z,48.00
2018-02-05T06:20:36.466Z,44.70
2018-02-05T06:21:36.398Z,48.80
2018-02-05T06:22:36.327Z,50.20
2018-02-05T06:23:36.257Z,50.60
2018-02-05T06:24:36.188Z,50.90
2018-02-05T06:25:36.117Z,51.30
2018-02-05T06:26:36.046Z,52.20
2018-02-05T06:27:35.977Z,51.40
2018-02-05T06:28:35.907Z,51.60
2018-02-05T06:29:35.838Z,52.20
2018-02-05T06:30:35.768Z,51.70
2018-02-05T06:31:35.697Z,55.40
2018-02-05T06:32:35.628Z,53.20
2018-02-05T06:33:35.560Z,51.60
2018-02-05T06:34:35.487Z,49.80
2018-02-05T06:35:35.418Z,50.90
2018-02-05T06:36:35.347Z,52.60
2018-02-05T06:37:35.280Z,56.80
2018-02-05T06:38:35.209Z,51.70
2018-02-05T06:39:35.138Z,42.20
2018-02-05T06:40:35.068Z,45.60
2018-02-05T06:41:34.999Z,47.50
2018-02-05T06:42:34.928Z,46.80
2018-02-05T06:43:34.859Z,49.80
2018-02-05T06:44:34.790Z,46.00
2018-02-05T06:45:34.723Z,50.70
2018-02-05T06:46:34.649Z,52.60
2018-02-05T06:47:34.581Z,46.60
2018-02-05T06:48:34.512Z,48.40
2018-02-05T06:49:34.440Z,52.60
2018-02-05T06:50:34.470Z,50.50
2018-02-05T06:51:34.303Z,55.30
2018-02-05T06:52:34.230Z,57.00
2018-02-05T06:53:34.161Z,54.90
2018-02-05T06:54:34.091Z,52.70
2018-02-05T06:55:34.022Z,55.10
2018-02-05T06:56:33.951Z,48.70
2018-02-05T06:57:33.883Z,51.20
2018-02-05T06:58:33.812Z,54.00
2018-02-05T06:59:33.742Z,50.50
2018-02-05T07:00:33.673Z,52.20
2018-02-05T07:01:33.602Z,50.10
2018-02-05T07:02:33.587Z,48.50
2018-02-05T07:03:33.463Z,49.00
2018-02-05T07:04:33.407Z,50.30
2018-02-05T07:05:33.324Z,49.50
2018-02-05T07:06:33.252Z,53.40
2018-02-05T07:07:33.183Z,53.60
2018-02-05T07:08:33.113Z,51.40
2018-02-05T07:09:33.044Z,52.60
2018-02-05T07:10:32.973Z,51.00
2018-02-05T07:11:32.905Z,58.70
2018-02-05T07:12:32.834Z,64.10
2018-02-05T07:13:32.768Z,60.60
2018-02-05T07:14:32.760Z,61.80
2018-02-05T07:15:32.626Z,63.70
2018-02-05T07:16:32.555Z,57.50
2018-02-05T07:17:32.486Z,57.30
2018-02-05T07:18:32.415Z,51.00
2018-02-05T07:19:32.346Z,52.70
2018-02-05T07:20:32.277Z,53.10
2018-02-05T07:21:32.207Z,50.40
2018-02-05T07:22:32.200Z,52.10
2018-02-05T07:23:32.066Z,47.90
2018-02-05T07:24:31.998Z,48.20
2018-02-05T07:25:31.929Z,50.00
2018-02-05T07:26:31.858Z,47.60
2018-02-05T07:27:31.788Z,45.90
2018-02-05T07:28:31.719Z,46.40
2018-02-05T07:29:31.649Z,52.20
2018-02-05T07:30:31.579Z,56.90
2018-02-05T07:31:31.531Z,52.80
2018-02-05T07:32:31.440Z,46.20
2018-02-05T07:33:31.371Z,49.50
2018-02-05T07:34:31.300Z,51.40
2018-02-05T07:35:31.231Z,55.70
2018-02-05T07:36:31.161Z,51.20
2018-02-05T07:37:31.092Z,53.50
2018-02-05T07:38:31.023Z,45.10
2018-02-05T07:39:30.952Z,48.00
2018-02-05T07:40:30.883Z,44.30
2018-02-05T07:41:30.814Z,44.00
2018-02-05T07:42:30.746Z,44.20
2018-02-05T07:43:30.677Z,44.20
2018-02-05T07:44:30.605Z,46.30
2018-02-05T07:45:30.536Z,49.00
2018-02-05T07:46:30.468Z,50.50
2018-02-05T07:47:30.397Z,47.60
2018-02-05T07:48:30.327Z,45.60
2018-02-05T07:49:30.258Z,42.30
2018-02-05T07:50:30.187Z,42.80
2018-02-05T07:51:30.117Z,44.60
2018-02-05T07:52:30.250Z,43.80
2018-02-05T07:53:29.982Z,46.30
2018-02-05T07:54:29.911Z,49.70
2018-02-05T07:55:29.840Z,47.10
2018-02-05T07:56:29.773Z,45.30
2018-02-05T07:57:29.705Z,44.50
2018-02-05T07:58:29.632Z,45.90
2018-02-05T07:59:29.563Z,46.00
2018-02-05T08:00:29.495Z,45.30
2018-02-05T08:01:29.427Z,46.90
2018-02-05T08:02:29.354Z,45.40
2018-02-05T08:03:29.287Z,48.40
2018-02-05T08:04:29.222Z,48.20
2018-02-05T08:05:29.147Z,50.10
2018-02-05T08:06:29.077Z,45.00
2018-02-05T08:07:29.008Z,52.30
2018-02-05T08:08:28.939Z,48.40
2018-02-05T08:09:28.870Z,46.50
2018-02-05T08:10:28.800Z,50.10
2018-02-05T08:11:28.731Z,47.00
2018-02-05T08:12:28.661Z,45.30
2018-02-05T08:13:28.593Z,49.20
2018-02-05T08:14:28.523Z,44.80
2018-02-05T08:15:28.458Z,47.50
2018-02-05T08:16:28.385Z,54.60
2018-02-05T08:17:28.315Z,48.80
2018-02-05T08:18:28.246Z,48.60
2018-02-05T08:19:28.177Z,49.70
2018-02-05T08:20:28.108Z,44.90
2018-02-05T08:21:28.039Z,49.80
2018-02-05T08:22:27.970Z,53.10
2018-02-05T08:23:27.904Z,46.50
2018-02-05T08:24:27.832Z,51.10
2018-02-05T08:25:27.764Z,50.00
2018-02-05T08:26:27.693Z,50.90
2018-02-05T08:27:27.639Z,50.40
2018-02-05T08:28:27.556Z,45.30
2018-02-05T08:29:27.486Z,48.40
2018-02-05T08:30:27.416Z,47.90
2018-02-05T08:31:27.348Z,47.80
2018-02-05T08:32:27.280Z,49.30
2018-02-05T08:33:27.211Z,49.20
2018-02-05T08:34:27.140Z,50.90
2018-02-05T08:35:27.071Z,49.20
2018-02-05T08:36:27.002Z,52.00
2018-02-05T08:37:26.933Z,53.00
2018-02-05T08:38:26.864Z,50.30
2018-02-05T08:39:26.795Z,50.10
2018-02-05T08:40:26.727Z,48.60
2018-02-05T08:41:26.657Z,47.20
2018-02-05T08:42:26.587Z,49.50
2018-02-05T08:43:26.520Z,45.60
2018-02-05T08:44:26.450Z,44.80
2018-02-05T08:45:26.382Z,46.80
2018-02-05T08:46:26.313Z,48.60
2018-02-05T08:47:26.243Z,47.90
2018-02-05T08:48:26.174Z,48.00
2018-02-05T08:49:26.105Z,45.70
2018-02-05T08:50:26.036Z,48.50
2018-02-05T08:51:25.967Z,49.30
2018-02-05T08:52:25.963Z,50.10
2018-02-05T08:53:25.829Z,52.00
2018-02-05T08:54:25.760Z,48.70
2018-02-05T08:55:25.692Z,51.30
2018-02-05T08:56:25.634Z,49.80
2018-02-05T08:57:25.556Z,45.60
2018-02-05T08:58:25.487Z,44.00
2018-02-05T08:59:25.425Z,40.20
2018-02-05T09:00:25.349Z,41.40
2018-02-05T09:01:25.280Z,43.90
2018-02-05T09:02:25.268Z,43.40
2018-02-05T09:03:25.142Z,44.80
2018-02-05T09:04:25.114Z,39.50
2018-02-05T09:05:25.055Z,39.70
2018-02-05T09:06:24.938Z,41.20
2018-02-05T09:07:24.872Z,39.10
2018-02-05T09:08:24.800Z,41.00
2018-02-05T09:09:24.733Z,38.50
2018-02-05T09:10:24.664Z,38.80
2018-02-05T09:11:24.596Z,37.70
2018-02-05T09:12:24.528Z,36.20
2018-02-05T09:13:24.459Z,38.90
2018-02-05T09:14:24.389Z,38.10
2018-02-05T09:15:24.325Z,40.90
2018-02-05T09:16:24.255Z,38.30
2018-02-05T09:17:24.186Z,41.10
2018-02-05T09:18:24.117Z,39.90
2018-02-05T09:19:24.050Z,40.50
2018-02-05T09:20:23.983Z,37.40
2018-02-05T09:21:24.002Z,36.00
2018-02-05T09:22:23.846Z,35.20
2018-02-05T09:23:23.779Z,36.70
2018-02-05T09:24:23.711Z,36.90
2018-02-05T09:25:23.646Z,35.90
2018-02-05T09:26:23.576Z,37.40
2018-02-05T09:27:23.509Z,33.20
2018-02-05T09:28:23.442Z,33.50
2018-02-05T09:29:23.375Z,37.60
2018-02-05T09:30:23.308Z,33.20
2018-02-05T09:31:23.240Z,34.20
2018-02-05T09:32:23.174Z,34.50
2018-02-05T09:33:23.106Z,33.10
2018-02-05T09:34:23.039Z,30.20
2018-02-05T09:35:22.972Z,30.60
2018-02-05T09:36:22.906Z,30.10
2018-02-05T09:37:22.838Z,27.50
2018-02-05T09:38:22.771Z,29.90
2018-02-05T09:39:22.703Z,28.50
2018-02-05T09:40:22.636Z,26.60
2018-02-05T09:41:22.569Z,26.10
2018-02-05T09:42:22.501Z,24.30
2018-02-05T09:43:22.434Z,23.70
2018-02-05T09:44:22.373Z,26.10
2018-02-05T09:45:22.299Z,24.90
2018-02-05T09:46:22.231Z,25.30
2018-02-05T09:47:22.168Z,27.70
2018-02-05T09:48:22.097Z,24.20
2018-02-05T09:49:22.029Z,24.80
2018-02-05T09:50:21.963Z,25.30
2018-02-05T09:51:21.892Z,25.50
2018-02-05T09:52:21.824Z,25.90
2018-02-05T09:53:21.758Z,24.60
2018-02-05T09:54:21.688Z,26.60
2018-02-05T09:55:21.620Z,24.90
2018-02-05T09:56:21.554Z,27.10
2018-02-05T09:57:21.484Z,25.70
2018-02-05T09:58:21.416Z,27.30
2018-02-05T09:59:21.348Z,24.10
2018-02-05T10:00:21.279Z,26.50
2018-02-05T10:01:21.211Z,26.40
2018-02-05T10:02:21.143Z,26.70
2018-02-05T10:03:21.075Z,23.60
2018-02-05T10:04:21.006Z,22.40
2018-02-05T10:05:20.938Z,27.80
2018-02-05T10:06:20.868Z,24.50
2018-02-05T10:07:20.800Z,24.00
2018-02-05T10:08:20.732Z,22.30
2018-02-05T10:09:20.664Z,26.60
2018-02-05T10:10:20.596Z,26.40
2018-02-05T10:11:20.526Z,26.10
2018-02-05T10:12:20.459Z,25.70
2018-02-05T10:13:20.390Z,25.10
2018-02-05T10:14:20.322Z,25.60
2018-02-05T10:15:20.253Z,23.90
2018-02-05T10:16:20.184Z,23.60
2018-02-05T10:17:20.117Z,23.90
2018-02-05T10:18:20.046Z,24.20
2018-02-05T10:19:19.981Z,25.60
2018-02-05T10:20:19.912Z,28.00
2018-02-05T10:21:19.842Z,26.80
2018-02-05T10:22:19.772Z,29.00
2018-02-05T10:23:19.703Z,28.60
2018-02-05T10:24:19.635Z,27.20
2018-02-05T10:25:19.567Z,27.10
2018-02-05T10:26:19.497Z,28.50
2018-02-05T10:27:19.429Z,27.10
2018-02-05T10:28:19.362Z,28.20
2018-02-05T10:29:19.294Z,26.60
2018-02-05T10:30:19.230Z,25.80
2018-02-05T10:31:19.155Z,25.00
2018-02-05T10:32:19.087Z,25.00
2018-02-05T10:33:19.019Z,24.50
2018-02-05T10:34:18.949Z,24.20
2018-02-05T10:35:18.881Z,23.20
2018-02-05T10:36:18.812Z,23.90
2018-02-05T10:37:18.744Z,25.00
2018-02-05T10:38:18.675Z,26.00
2018-02-05T10:39:18.610Z,24.30
2018-02-05T10:40:18.539Z,25.00
2018-02-05T10:41:18.472Z,24.00
2018-02-05T10:42:18.401Z,25.10
2018-02-05T10:43:18.334Z,26.20
2018-02-05T10:44:18.265Z,25.90
2018-02-05T10:45:18.197Z,24.70
2018-02-05T10:46:18.128Z,24.20
2018-02-05T10:47:18.061Z,22.20
2018-02-05T10:48:17.993Z,25.40
2018-02-05T10:49:17.924Z,23.10
2018-02-05T10:50:17.855Z,23.70
2018-02-05T10:51:17.787Z,25.60
2018-02-05T10:52:17.719Z,23.90
2018-02-05T10:53:17.650Z,23.50
2018-02-05T10:54:17.582Z,24.70
2018-02-05T10:55:17.514Z,22.60
2018-02-05T10:56:17.445Z,23.60
2018-02-05T10:57:17.377Z,22.10
2018-02-05T10:58:17.309Z,20.20
2018-02-05T10:59:17.241Z,21.00
2018-02-05T11:00:17.172Z,22.30
2018-02-05T11:01:17.106Z,25.00
2018-02-05T11:02:17.040Z,24.50
2018-02-05T11:03:16.968Z,26.30
2018-02-05T11:04:16.899Z,25.80
2018-02-05T11:05:16.831Z,23.80
2018-02-05T11:06:16.763Z,25.30
2018-02-05T11:07:16.694Z,23.00
2018-02-05T11:08:16.627Z,23.50
2018-02-05T11:09:16.560Z,21.30
2018-02-05T11:10:16.491Z,21.30
2018-02-05T11:11:16.423Z,20.90
2018-02-05T11:12:16.355Z,21.30
2018-02-05T11:13:16.289Z,22.70
2018-02-05T11:14:16.218Z,21.50
2018-02-05T11:15:16.152Z,21.80
2018-02-05T11:16:16.082Z,21.40
2018-02-05T11:17:16.015Z,19.40
2018-02-05T11:18:15.947Z,23.10
2018-02-05T11:19:16.082Z,19.50
2018-02-05T11:20:15.810Z,21.00
2018-02-05T11:21:15.743Z,21.80
2018-02-05T11:22:15.675Z,20.70
2018-02-05T11:23:15.607Z,20.90
2018-02-05T11:24:15.538Z,21.80
2018-02-05T11:25:15.470Z,22.30
2018-02-05T11:26:15.402Z,20.70
2018-02-05T11:27:15.335Z,18.50
2018-02-05T11:28:15.266Z,17.80
2018-02-05T11:29:15.199Z,17.80
2018-02-05T11:30:15.130Z,18.60
2018-02-05T11:31:15.063Z,18.70
2018-02-05T11:32:14.994Z,19.60
2018-02-05T11:33:14.927Z,19.00
2018-02-05T11:34:14.859Z,19.10
2018-02-05T11:35:14.792Z,18.70
2018-02-05T11:36:14.776Z,18.50
2018-02-05T11:37:14.656Z,19.40
2018-02-05T11:38:14.587Z,17.10
2018-02-05T11:39:14.519Z,17.80
2018-02-05T11:40:14.451Z,17.80
2018-02-05T11:41:14.383Z,15.60
2018-02-05T11:42:14.319Z,14.10
2018-02-05T11:43:14.247Z,16.30
2018-02-05T11:44:14.183Z,16.40
2018-02-05T11:45:14.113Z,17.30
2018-02-05T11:46:14.044Z,16.40
2018-02-05T11:47:13.976Z,17.70
2018-02-05T11:48:13.910Z,19.40
2018-02-05T11:49:13.841Z,17.40
2018-02-05T11:50:13.773Z,17.70
2018-02-05T11:51:13.705Z,16.80
2018-02-05T11:52:13.638Z,18.00
2018-02-05T11:53:13.572Z,18.80
2018-02-05T11:54:13.502Z,18.10
2018-02-05T11:55:13.435Z,18.10
2018-02-05T11:56:13.367Z,18.20
2018-02-05T11:57:13.355Z,16.50
2018-02-05T11:58:13.232Z,17.90
2018-02-05T11:59:13.163Z,16.80
2018-02-05T12:00:13.097Z,19.00
2018-02-05T12:01:13.029Z,19.20
2018-02-05T12:02:12.962Z,16.90
2018-02-05T12:03:12.893Z,17.20
2018-02-05T12:04:12.846Z,17.50
2018-02-05T12:05:12.758Z,16.90
2018-02-05T12:06:12.692Z,16.90
2018-02-05T12:07:12.623Z,17.60
2018-02-05T12:08:12.556Z,18.00
2018-02-05T12:09:12.490Z,15.40
2018-02-05T12:10:12.421Z,15.90
2018-02-05T12:11:12.351Z,16.00
2018-02-05T12:12:12.285Z,16.00
2018-02-05T12:13:12.218Z,16.10
2018-02-05T12:14:12.149Z,14.80
2018-02-05T12:15:12.182Z,13.60
2018-02-05T12:16:12.015Z,15.90
2018-02-05T12:17:11.947Z,16.90
2018-02-05T12:18:11.878Z,16.90
2018-02-05T12:19:11.829Z,17.10
2018-02-05T12:20:11.744Z,15.90
2018-02-05T12:21:11.678Z,15.00
2018-02-05T12:22:11.609Z,15.70
2018-02-05T12:23:11.541Z,16.70
2018-02-05T12:24:11.473Z,15.10
2018-02-05T12:25:11.405Z,19.80
2018-02-05T12:26:11.337Z,14.50
2018-02-05T12:27:11.270Z,14.20
2018-02-05T12:28:11.202Z,14.30
2018-02-05T12:29:11.137Z,18.00
2018-02-05T12:30:11.067Z,14.30
2018-02-05T12:31:11.000Z,13.50
2018-02-05T12:32:10.931Z,11.70
2018-02-05T12:33:10.865Z,13.30
2018-02-05T12:34:10.796Z,11.70
2018-02-05T12:35:10.728Z,13.80
2018-02-05T12:36:10.661Z,12.90
2018-02-05T12:37:10.593Z,11.40
2018-02-05T12:38:10.526Z,13.50
2018-02-05T12:39:10.457Z,12.70
2018-02-05T12:40:10.390Z,15.40
2018-02-05T12:41:10.322Z,13.70
2018-02-05T12:42:10.255Z,13.40
2018-02-05T12:43:10.188Z,14.70
2018-02-05T12:44:10.120Z,14.80
2018-02-05T12:45:10.053Z,14.70
2018-02-05T12:46:09.985Z,14.90
2018-02-05T12:47:09.917Z,15.20
2018-02-05T12:48:09.849Z,15.20
2018-02-05T12:49:09.782Z,15.10
2018-02-05T12:50:09.718Z,15.00
2018-02-05T12:51:09.970Z,13.10